PWSweather.com
Personal Weather Stations
Station Observations
KMNGREYC2
Grey Cloud Island, Grey Cloud Island, MN 55071

Grey Cloud IslandGrey Cloud Island, MN 55071

Lat: 44.799333, Lon: -92.987851

Elevation: 700

Station Type: Davis VP2

www.jagielski.com/weather/conditions.htm

High Low Average
Temperature 10.8°F-11.8°C -5.4°F-20.8°C 3.0°F-16.1°C
Dew Point 0.2°F-17.7°C -12.4°F-24.7°C -7.9°F-22.2°C
Winds 11.0 mph 17.7 kmh Calm Calm 3.0 mph WNW4.8 kmh WNW
Wind Gusts 19.0 mph30.6 kmh -- 9.0 mph14.5 kmh
Humidity 71% 49% 60%
Pressure 30.54 in1034.2 mb 29.97 in1014.9 mb -
Precipitation 0.00 in0.0 mm - -
Hour Temp Dew Point Humidity Winds Wind Gusts Pressure Precip Precip Rate Daily Precip Total
12:00 AM 10.8°F-11.8°C 0.0°F-17.8°C 61% 2.0 mph NW3.2 kmh NW 10.0 mph16.1 kmh 29.97 in1014.9 mb 0.00 in0.0 mm 0.00 in0.0 mm 0.00 in0.0 mm
12:15 AM 9.9°F-12.3°C 0.2°F-17.7°C 64% 2.0 mph WNW3.2 kmh WNW 19.0 mph30.6 kmh 29.98 in1015.2 mb 0.00 in0.0 mm 0.00 in0.0 mm 0.00 in0.0 mm
12:30 AM 8.7°F-12.9°C -2.7°F-19.3°C 59% 4.0 mph WNW6.4 kmh WNW 11.0 mph17.7 kmh 29.99 in1015.6 mb 0.00 in0.0 mm 0.00 in0.0 mm 0.00 in0.0 mm
12:45 AM 7.8°F-13.4°C -3.2°F-19.6°C 60% 3.0 mph NNW4.8 kmh NNW 15.0 mph24.1 kmh 30.00 in1015.9 mb 0.00 in0.0 mm 0.00 in0.0 mm 0.00 in0.0 mm
01:00 AM 7.1°F-13.8°C -3.9°F-19.9°C 60% 2.0 mph NNW3.2 kmh NNW 10.0 mph16.1 kmh 30.00 in1015.9 mb 0.00 in0.0 mm 0.00 in0.0 mm 0.00 in0.0 mm
01:15 AM 6.5°F-14.2°C -4.4°F-20.2°C 60% 3.0 mph NW4.8 kmh NW 11.0 mph17.7 kmh 30.01 in1016.3 mb 0.00 in0.0 mm 0.00 in0.0 mm 0.00 in0.0 mm
01:30 AM 6.0°F-14.4°C -4.6°F-20.3°C 61% 9.0 mph N14.5 kmh N 12.0 mph19.3 kmh 30.02 in1016.6 mb 0.00 in0.0 mm 0.00 in0.0 mm 0.00 in0.0 mm
01:45 AM 5.4°F-14.8°C -5.8°F-21.0°C 59% 4.0 mph NW6.4 kmh NW 19.0 mph30.6 kmh 30.03 in1016.9 mb 0.00 in0.0 mm 0.00 in0.0 mm 0.00 in0.0 mm
02:00 AM 4.8°F-15.1°C -6.7°F-21.5°C 58% 2.0 mph N3.2 kmh N 12.0 mph19.3 kmh 30.05 in1017.6 mb 0.00 in0.0 mm 0.00 in0.0 mm 0.00 in0.0 mm
02:15 AM 4.3°F-15.4°C -6.5°F-21.4°C 60% 11.0 mph WNW17.7 kmh WNW 14.0 mph22.5 kmh 30.06 in1017.9 mb 0.00 in0.0 mm 0.00 in0.0 mm 0.00 in0.0 mm
02:30 AM 3.7°F-15.7°C -7.1°F-21.7°C 60% 4.0 mph WNW6.4 kmh WNW 7.0 mph11.3 kmh 30.07 in1018.3 mb 0.00 in0.0 mm 0.00 in0.0 mm 0.00 in0.0 mm
02:45 AM 3.2°F-16.0°C -7.5°F-21.9°C 60% 3.0 mph NW4.8 kmh NW 15.0 mph24.1 kmh 30.08 in1018.6 mb 0.00 in0.0 mm 0.00 in0.0 mm 0.00 in0.0 mm
03:00 AM 2.6°F-16.3°C -8.5°F-22.5°C 59% 2.0 mph WNW3.2 kmh WNW 12.0 mph19.3 kmh 30.09 in1019.0 mb 0.00 in0.0 mm 0.00 in0.0 mm 0.00 in0.0 mm
03:15 AM 2.1°F-16.6°C -8.9°F-22.7°C 59% 6.0 mph WNW9.7 kmh WNW 12.0 mph19.3 kmh 30.10 in1019.3 mb 0.00 in0.0 mm 0.00 in0.0 mm 0.00 in0.0 mm
03:30 AM 1.6°F-16.9°C -9.8°F-23.2°C 58% 5.0 mph WNW8.0 kmh WNW 13.0 mph20.9 kmh 30.10 in1019.3 mb 0.00 in0.0 mm 0.00 in0.0 mm 0.00 in0.0 mm
03:45 AM 1.3°F-17.1°C -9.3°F-22.9°C 60% 2.0 mph WNW3.2 kmh WNW 13.0 mph20.9 kmh 30.11 in1019.6 mb 0.00 in0.0 mm 0.00 in0.0 mm 0.00 in0.0 mm
04:00 AM 1.0°F-17.2°C -9.3°F-22.9°C 61% 4.0 mph N6.4 kmh N 8.0 mph12.9 kmh 30.12 in1020.0 mb 0.00 in0.0 mm 0.00 in0.0 mm 0.00 in0.0 mm
04:15 AM 0.7°F-17.4°C -9.6°F-23.1°C 61% Calm Calm 12.0 mph19.3 kmh 30.13 in1020.3 mb 0.00 in0.0 mm 0.00 in0.0 mm 0.00 in0.0 mm
04:30 AM 0.5°F-17.5°C -8.8°F-22.7°C 64% 1.0 mph WNW1.6 kmh WNW 9.0 mph14.5 kmh 30.13 in1020.3 mb 0.00 in0.0 mm 0.00 in0.0 mm 0.00 in0.0 mm
04:45 AM 0.4°F-17.6°C -8.9°F-22.7°C 64% 4.0 mph WNW6.4 kmh WNW 17.0 mph27.4 kmh 30.14 in1020.7 mb 0.00 in0.0 mm 0.00 in0.0 mm 0.00 in0.0 mm
05:00 AM 0.4°F-17.6°C -8.9°F-22.7°C 64% 3.0 mph WNW4.8 kmh WNW 7.0 mph11.3 kmh 30.15 in1021.0 mb 0.00 in0.0 mm 0.00 in0.0 mm 0.00 in0.0 mm
05:15 AM 0.1°F-17.7°C -10.9°F-23.8°C 59% 7.0 mph NW11.3 kmh NW 15.0 mph24.1 kmh 30.16 in1021.3 mb 0.00 in0.0 mm 0.00 in0.0 mm 0.00 in0.0 mm
05:30 AM -0.5°F-18.1°C -11.7°F-24.3°C 58% 3.0 mph NW4.8 kmh NW 10.0 mph16.1 kmh 30.17 in1021.7 mb 0.00 in0.0 mm 0.00 in0.0 mm 0.00 in0.0 mm
05:45 AM -0.9°F-18.3°C -12.1°F-24.5°C 58% 2.0 mph WNW3.2 kmh WNW 18.0 mph29.0 kmh 30.18 in1022.0 mb 0.00 in0.0 mm 0.00 in0.0 mm 0.00 in0.0 mm
06:00 AM -1.2°F-18.4°C -12.1°F-24.5°C 59% 4.0 mph NNE6.4 kmh NNE 8.0 mph12.9 kmh 30.19 in1022.4 mb 0.00 in0.0 mm 0.00 in0.0 mm 0.00 in0.0 mm
06:15 AM -1.4°F-18.6°C -11.9°F-24.4°C 60% 2.0 mph WNW3.2 kmh WNW 13.0 mph20.9 kmh 30.20 in1022.7 mb 0.00 in0.0 mm 0.00 in0.0 mm 0.00 in0.0 mm
06:30 AM -1.6°F-18.7°C -11.8°F-24.3°C 61% 5.0 mph NW8.0 kmh NW 8.0 mph12.9 kmh 30.21 in1023.0 mb 0.00 in0.0 mm 0.00 in0.0 mm 0.00 in0.0 mm
06:45 AM -1.7°F-18.7°C -12.2°F-24.6°C 60% 6.0 mph W9.7 kmh W 13.0 mph20.9 kmh 30.21 in1023.0 mb 0.00 in0.0 mm 0.00 in0.0 mm 0.00 in0.0 mm
07:00 AM -1.8°F-18.8°C -12.3°F-24.6°C 60% 2.0 mph WNW3.2 kmh WNW 6.0 mph9.7 kmh 30.22 in1023.4 mb 0.00 in0.0 mm 0.00 in0.0 mm 0.00 in0.0 mm
07:15 AM -2.0°F-18.9°C -12.1°F-24.5°C 61% 8.0 mph WNW12.9 kmh WNW 12.0 mph19.3 kmh 30.23 in1023.7 mb 0.00 in0.0 mm 0.00 in0.0 mm 0.00 in0.0 mm
07:30 AM -2.1°F-18.9°C -11.9°F-24.4°C 62% 1.0 mph NW1.6 kmh NW 2.0 mph3.2 kmh 30.24 in1024.0 mb 0.00 in0.0 mm 0.00 in0.0 mm 0.00 in0.0 mm
07:45 AM -2.3°F-19.1°C -11.8°F-24.3°C 63% Calm Calm 11.0 mph17.7 kmh 30.25 in1024.4 mb 0.00 in0.0 mm 0.00 in0.0 mm 0.00 in0.0 mm
08:00 AM -2.4°F-19.1°C -11.9°F-24.4°C 63% 2.0 mph NW3.2 kmh NW 6.0 mph9.7 kmh 30.26 in1024.7 mb 0.00 in0.0 mm 0.00 in0.0 mm 0.00 in0.0 mm
08:15 AM -2.3°F-19.1°C -11.8°F-24.3°C 63% Calm Calm 10.0 mph16.1 kmh 30.27 in1025.1 mb 0.00 in0.0 mm 0.00 in0.0 mm 0.00 in0.0 mm
08:30 AM -2.1°F-18.9°C -11.6°F-24.2°C 63% 4.0 mph NW6.4 kmh NW 7.0 mph11.3 kmh 30.27 in1025.1 mb 0.00 in0.0 mm 0.00 in0.0 mm 0.00 in0.0 mm
08:45 AM -1.8°F-18.8°C -11.3°F-24.1°C 63% 1.0 mph WNW1.6 kmh WNW 14.0 mph22.5 kmh 30.28 in1025.4 mb 0.00 in0.0 mm 0.00 in0.0 mm 0.00 in0.0 mm
09:00 AM -1.3°F-18.5°C -10.8°F-23.8°C 63% 4.0 mph WNW6.4 kmh WNW 7.0 mph11.3 kmh 30.29 in1025.7 mb 0.00 in0.0 mm 0.00 in0.0 mm 0.00 in0.0 mm
09:15 AM -0.6°F-18.1°C -10.2°F-23.4°C 63% 2.0 mph NW3.2 kmh NW 8.0 mph12.9 kmh 30.30 in1026.1 mb 0.00 in0.0 mm 0.00 in0.0 mm 0.00 in0.0 mm
09:30 AM -0.2°F-17.9°C -10.4°F-23.6°C 61% 7.0 mph NW11.3 kmh NW 7.0 mph11.3 kmh 30.31 in1026.4 mb 0.00 in0.0 mm 0.00 in0.0 mm 0.00 in0.0 mm
09:45 AM 0.2°F-17.7°C -10.1°F-23.4°C 61% 7.0 mph WNW11.3 kmh WNW 13.0 mph20.9 kmh 30.32 in1026.8 mb 0.00 in0.0 mm 0.00 in0.0 mm 0.00 in0.0 mm
10:00 AM 1.0°F-17.2°C -9.6°F-23.1°C 60% 3.0 mph WNW4.8 kmh WNW 7.0 mph11.3 kmh 30.32 in1026.8 mb 0.00 in0.0 mm 0.00 in0.0 mm 0.00 in0.0 mm
10:15 AM 2.0°F-16.7°C -9.4°F-23.0°C 58% 2.0 mph NNE3.2 kmh NNE 12.0 mph19.3 kmh 30.33 in1027.1 mb 0.00 in0.0 mm 0.00 in0.0 mm 0.00 in0.0 mm
10:30 AM 3.1°F-16.1°C -8.3°F-22.4°C 58% 2.0 mph NE3.2 kmh NE 11.0 mph17.7 kmh 30.33 in1027.1 mb 0.00 in0.0 mm 0.00 in0.0 mm 0.00 in0.0 mm
10:45 AM 3.7°F-15.7°C -8.9°F-22.7°C 55% 3.0 mph W4.8 kmh W 15.0 mph24.1 kmh 30.33 in1027.1 mb 0.00 in0.0 mm 0.00 in0.0 mm 0.00 in0.0 mm
11:00 AM 4.6°F-15.2°C -8.4°F-22.4°C 54% Calm Calm 10.0 mph16.1 kmh 30.33 in1027.1 mb 0.00 in0.0 mm 0.00 in0.0 mm 0.00 in0.0 mm
11:15 AM 5.2°F-14.9°C -7.8°F-22.1°C 54% 2.0 mph WNW3.2 kmh WNW 14.0 mph22.5 kmh 30.34 in1027.4 mb 0.00 in0.0 mm 0.00 in0.0 mm 0.00 in0.0 mm
11:30 AM 5.7°F-14.6°C -7.7°F-22.1°C 53% 4.0 mph WNW6.4 kmh WNW 4.0 mph6.4 kmh 30.35 in1027.8 mb 0.00 in0.0 mm 0.00 in0.0 mm 0.00 in0.0 mm
11:45 AM 5.8°F-14.6°C -8.0°F-22.2°C 52% 9.0 mph NW14.5 kmh NW 13.0 mph20.9 kmh 30.35 in1027.8 mb 0.00 in0.0 mm 0.00 in0.0 mm 0.00 in0.0 mm
12:00 PM 5.3°F-14.8°C -8.5°F-22.5°C 52% 7.0 mph NW11.3 kmh NW 13.0 mph20.9 kmh 30.35 in1027.8 mb 0.00 in0.0 mm 0.00 in0.0 mm 0.00 in0.0 mm
12:15 PM 5.5°F-14.7°C -7.5°F-21.9°C 54% 6.0 mph WNW9.7 kmh WNW 14.0 mph22.5 kmh 30.35 in1027.8 mb 0.00 in0.0 mm 0.00 in0.0 mm 0.00 in0.0 mm
12:30 PM 5.6°F-14.7°C -7.1°F-21.7°C 55% Calm Calm 7.0 mph11.3 kmh 30.34 in1027.4 mb 0.00 in0.0 mm 0.00 in0.0 mm 0.00 in0.0 mm
12:45 PM 5.7°F-14.6°C -7.0°F-21.7°C 55% 2.0 mph NW3.2 kmh NW 14.0 mph22.5 kmh 30.34 in1027.4 mb 0.00 in0.0 mm 0.00 in0.0 mm 0.00 in0.0 mm
01:00 PM 6.2°F-14.3°C -6.9°F-21.6°C 54% 4.0 mph NW6.4 kmh NW 7.0 mph11.3 kmh 30.34 in1027.4 mb 0.00 in0.0 mm 0.00 in0.0 mm 0.00 in0.0 mm
01:15 PM 6.9°F-13.9°C -6.2°F-21.2°C 54% 3.0 mph WNW4.8 kmh WNW 15.0 mph24.1 kmh 30.34 in1027.4 mb 0.00 in0.0 mm 0.00 in0.0 mm 0.00 in0.0 mm
01:30 PM 8.2°F-13.2°C -5.4°F-20.8°C 53% 5.0 mph NW8.0 kmh NW 5.0 mph8.0 kmh 30.34 in1027.4 mb 0.00 in0.0 mm 0.00 in0.0 mm 0.00 in0.0 mm
01:45 PM 8.4°F-13.1°C -6.0°F-21.1°C 51% 3.0 mph W4.8 kmh W 16.0 mph25.7 kmh 30.35 in1027.8 mb 0.00 in0.0 mm 0.00 in0.0 mm 0.00 in0.0 mm
02:00 PM 9.1°F-12.7°C -4.9°F-20.5°C 52% 2.0 mph NW3.2 kmh NW 7.0 mph11.3 kmh 30.35 in1027.8 mb 0.00 in0.0 mm 0.00 in0.0 mm 0.00 in0.0 mm
02:15 PM 9.9°F-12.3°C -5.0°F-20.6°C 50% 8.0 mph WNW12.9 kmh WNW 16.0 mph25.7 kmh 30.35 in1027.8 mb 0.00 in0.0 mm 0.00 in0.0 mm 0.00 in0.0 mm
02:30 PM 9.7°F-12.4°C -5.2°F-20.7°C 50% 5.0 mph WNW8.0 kmh WNW 10.0 mph16.1 kmh 30.35 in1027.8 mb 0.00 in0.0 mm 0.00 in0.0 mm 0.00 in0.0 mm
02:45 PM 10.1°F-12.2°C -4.4°F-20.2°C 51% 4.0 mph WSW6.4 kmh WSW 12.0 mph19.3 kmh 30.36 in1028.1 mb 0.00 in0.0 mm 0.00 in0.0 mm 0.00 in0.0 mm
03:00 PM 10.8°F-11.8°C -4.6°F-20.3°C 49% 1.0 mph WSW1.6 kmh WSW 14.0 mph22.5 kmh 30.37 in1028.4 mb 0.00 in0.0 mm 0.00 in0.0 mm 0.00 in0.0 mm
03:15 PM 10.3°F-12.1°C -4.2°F-20.1°C 51% 2.0 mph NW3.2 kmh NW 15.0 mph24.1 kmh 30.37 in1028.4 mb 0.00 in0.0 mm 0.00 in0.0 mm 0.00 in0.0 mm
03:30 PM 9.5°F-12.5°C -5.0°F-20.6°C 51% 4.0 mph WNW6.4 kmh WNW 6.0 mph9.7 kmh 30.37 in1028.4 mb 0.00 in0.0 mm 0.00 in0.0 mm 0.00 in0.0 mm
03:45 PM 9.2°F-12.7°C -4.9°F-20.5°C 52% 4.0 mph NW6.4 kmh NW 14.0 mph22.5 kmh 30.38 in1028.8 mb 0.00 in0.0 mm 0.00 in0.0 mm 0.00 in0.0 mm
04:00 PM 9.0°F-12.8°C -4.6°F-20.3°C 53% 4.0 mph NNW6.4 kmh NNW 7.0 mph11.3 kmh 30.39 in1029.1 mb 0.00 in0.0 mm 0.00 in0.0 mm 0.00 in0.0 mm
04:15 PM 8.7°F-12.9°C -4.5°F-20.3°C 54% Calm Calm 13.0 mph20.9 kmh 30.39 in1029.1 mb 0.00 in0.0 mm 0.00 in0.0 mm 0.00 in0.0 mm
04:30 PM 8.3°F-13.2°C -4.9°F-20.5°C 54% 10.0 mph WNW16.1 kmh WNW 10.0 mph16.1 kmh 30.40 in1029.5 mb 0.00 in0.0 mm 0.00 in0.0 mm 0.00 in0.0 mm
04:45 PM 7.7°F-13.5°C -4.7°F-20.4°C 56% 1.0 mph WNW1.6 kmh WNW 11.0 mph17.7 kmh 30.40 in1029.5 mb 0.00 in0.0 mm 0.00 in0.0 mm 0.00 in0.0 mm
05:00 PM 7.3°F-13.7°C -4.7°F-20.4°C 57% Calm Calm 2.0 mph3.2 kmh 30.41 in1029.8 mb 0.00 in0.0 mm 0.00 in0.0 mm 0.00 in0.0 mm
05:15 PM 6.9°F-13.9°C -5.1°F-20.6°C 57% Calm Calm 7.0 mph11.3 kmh 30.41 in1029.8 mb 0.00 in0.0 mm 0.00 in0.0 mm 0.00 in0.0 mm
05:30 PM 6.5°F-14.2°C -5.1°F-20.6°C 58% Calm Calm 6.0 mph9.7 kmh 30.42 in1030.1 mb 0.00 in0.0 mm 0.00 in0.0 mm 0.00 in0.0 mm
05:45 PM 6.2°F-14.3°C -5.4°F-20.8°C 58% Calm Calm 6.0 mph9.7 kmh 30.42 in1030.1 mb 0.00 in0.0 mm 0.00 in0.0 mm 0.00 in0.0 mm
06:00 PM 5.7°F-14.6°C -5.9°F-21.1°C 58% 2.0 mph WNW3.2 kmh WNW 4.0 mph6.4 kmh 30.43 in1030.5 mb 0.00 in0.0 mm 0.00 in0.0 mm 0.00 in0.0 mm
06:15 PM 4.2°F-15.4°C -6.6°F-21.4°C 60% 1.0 mph WNW1.6 kmh WNW 4.0 mph6.4 kmh 30.44 in1030.8 mb 0.00 in0.0 mm 0.00 in0.0 mm 0.00 in0.0 mm
06:30 PM 3.3°F-15.9°C -6.8°F-21.6°C 62% 2.0 mph WNW3.2 kmh WNW 2.0 mph3.2 kmh 30.44 in1030.8 mb 0.00 in0.0 mm 0.00 in0.0 mm 0.00 in0.0 mm
06:45 PM 2.7°F-16.3°C -7.0°F-21.7°C 63% 4.0 mph WNW6.4 kmh WNW 4.0 mph6.4 kmh 30.45 in1031.2 mb 0.00 in0.0 mm 0.00 in0.0 mm 0.00 in0.0 mm
07:00 PM 2.0°F-16.7°C -7.4°F-21.9°C 64% Calm Calm 3.0 mph4.8 kmh 30.45 in1031.2 mb 0.00 in0.0 mm 0.00 in0.0 mm 0.00 in0.0 mm
07:15 PM 1.6°F-16.9°C -7.1°F-21.7°C 66% Calm Calm 6.0 mph9.7 kmh 30.46 in1031.5 mb 0.00 in0.0 mm 0.00 in0.0 mm 0.00 in0.0 mm
07:30 PM 1.4°F-17.0°C -7.3°F-21.8°C 66% Calm Calm 3.0 mph4.8 kmh 30.46 in1031.5 mb 0.00 in0.0 mm 0.00 in0.0 mm 0.00 in0.0 mm
07:45 PM 1.4°F-17.0°C -7.3°F-21.8°C 66% Calm Calm 4.0 mph6.4 kmh 30.47 in1031.8 mb 0.00 in0.0 mm 0.00 in0.0 mm 0.00 in0.0 mm
08:00 PM 0.1°F-17.7°C -7.9°F-22.2°C 68% 2.0 mph WNW3.2 kmh WNW 5.0 mph8.0 kmh 30.47 in1031.8 mb 0.00 in0.0 mm 0.00 in0.0 mm 0.00 in0.0 mm
08:15 PM 0.5°F-17.5°C -7.3°F-21.8°C 69% Calm Calm 8.0 mph12.9 kmh 30.48 in1032.2 mb 0.00 in0.0 mm 0.00 in0.0 mm 0.00 in0.0 mm
08:30 PM 1.3°F-17.1°C -6.8°F-21.6°C 68% 2.0 mph NW3.2 kmh NW 7.0 mph11.3 kmh 30.48 in1032.2 mb 0.00 in0.0 mm 0.00 in0.0 mm 0.00 in0.0 mm
08:45 PM 2.0°F-16.7°C -6.7°F-21.5°C 66% 2.0 mph WNW3.2 kmh WNW 7.0 mph11.3 kmh 30.49 in1032.5 mb 0.00 in0.0 mm 0.00 in0.0 mm 0.00 in0.0 mm
09:00 PM 2.3°F-16.5°C -6.8°F-21.6°C 65% Calm Calm 5.0 mph8.0 kmh 30.49 in1032.5 mb 0.00 in0.0 mm 0.00 in0.0 mm 0.00 in0.0 mm
09:15 PM 2.0°F-16.7°C -7.4°F-21.9°C 64% 1.0 mph WNW1.6 kmh WNW 5.0 mph8.0 kmh 30.49 in1032.5 mb 0.00 in0.0 mm 0.00 in0.0 mm 0.00 in0.0 mm
09:30 PM 1.1°F-17.2°C -8.2°F-22.3°C 64% Calm Calm 2.0 mph3.2 kmh 30.50 in1032.8 mb 0.00 in0.0 mm 0.00 in0.0 mm 0.00 in0.0 mm
09:45 PM 0.2°F-17.7°C -8.5°F-22.5°C 66% Calm Calm 4.0 mph6.4 kmh 30.50 in1032.8 mb 0.00 in0.0 mm 0.00 in0.0 mm 0.00 in0.0 mm
10:00 PM -0.5°F-18.1°C -9.1°F-22.8°C 66% 1.0 mph WNW1.6 kmh WNW 2.0 mph3.2 kmh 30.51 in1033.2 mb 0.00 in0.0 mm 0.00 in0.0 mm 0.00 in0.0 mm
10:15 PM -1.4°F-18.6°C -9.7°F-23.2°C 67% Calm Calm 4.0 mph6.4 kmh 30.52 in1033.5 mb 0.00 in0.0 mm 0.00 in0.0 mm 0.00 in0.0 mm
10:30 PM -2.2°F-19.0°C -10.2°F-23.4°C 68% Calm Calm -- 30.52 in1033.5 mb 0.00 in0.0 mm 0.00 in0.0 mm 0.00 in0.0 mm
10:45 PM -3.2°F-19.6°C -11.1°F-23.9°C 68% Calm Calm 2.0 mph3.2 kmh 30.52 in1033.5 mb 0.00 in0.0 mm 0.00 in0.0 mm 0.00 in0.0 mm
11:00 PM -4.0°F-20.0°C -11.6°F-24.2°C 69% 2.0 mph WNW3.2 kmh WNW 3.0 mph4.8 kmh 30.52 in1033.5 mb 0.00 in0.0 mm 0.00 in0.0 mm 0.00 in0.0 mm
11:15 PM -4.6°F-20.3°C -11.9°F-24.4°C 70% 1.0 mph WNW1.6 kmh WNW 4.0 mph6.4 kmh 30.53 in1033.9 mb 0.00 in0.0 mm 0.00 in0.0 mm 0.00 in0.0 mm
11:30 PM -5.0°F-20.6°C -12.3°F-24.6°C 70% Calm Calm -- 30.54 in1034.2 mb 0.00 in0.0 mm 0.00 in0.0 mm 0.00 in0.0 mm
11:45 PM -5.4°F-20.8°C -12.4°F-24.7°C 71% Calm Calm -- 30.54 in1034.2 mb 0.00 in0.0 mm 0.00 in0.0 mm 0.00 in0.0 mm